• Join FlightAware (Why Join?)
  • Login
  • US Flag 
05:07AM EDT


 

Airport Tracker/Info


-or-


 

Live Flight TrackerFlight Track Log ✈ DAL1167 ✈ 05-May-2012 ✈ KATL - KSNA

Flight Track Log - Related Links

Times and Time Zones

All times are in EDT time to prevent confusion due to time zone crossing. See the DAL1167 flight status page for this flight to view local times or setup timezone preferences in your user account.

Time Position Orientation Groundspeed Altitude Reporting Facility
EDT Latitude Longitude Course Direction KTS MPH feet Rate Location/Type
03:43PM 33.6500 -84.4500 270° West 167 192 1,800  Level Atlanta TRACON
03:44PM 33.6500 -84.5167 287° West 215 247 3,200 1,980 Climbing Atlanta TRACON
03:45PM 33.6667 -84.5833 284° West 258 297 5,600 2,700 Climbing Atlanta TRACON
03:46PM 33.6833 -84.6667 270° West 268 308 8,400 1,980 Climbing Atlanta TRACON
03:48PM 33.6847 -84.9200 262° West 324 373 12,700 1,920 Climbing Atlanta Center
03:49PM 33.6692 -85.0447 263° West 366 421 15,200 2,580 Climbing Atlanta Center
03:50PM 33.6556 -85.1719 267° West 392 451 17,900 2,580 Climbing Atlanta Center
03:51PM 33.6500 -85.3042 271° West 397 457 20,400 2,220 Climbing Atlanta Center
03:52PM 33.6528 -85.4439 271° West 412 474 22,400 1,980 Climbing Atlanta Center
03:53PM 33.6553 -85.5861 271° West 423 487 24,400 1,800 Climbing Atlanta Center
03:54PM 33.6572 -85.7433 271° West 428 493 26,000 1,380 Climbing Atlanta Center
03:55PM 33.6594 -85.8731 270° West 433 498 27,200 1,440 Climbing Atlanta Center
03:56PM 33.6592 -86.0281 271° West 451 519 28,900 1,560 Climbing Atlanta Center
03:57PM 33.6608 -86.1828 272° West 462 532 30,400 1,440 Climbing Atlanta Center
03:58PM 33.6642 -86.3400 271° West 468 539 31,800 1,980 Climbing Atlanta Center
03:59PM 33.6656 -86.4897 270° West 463 533 34,400 1,560 Climbing Atlanta Center
04:00PM 33.6664 -86.6497 271° West 450 518 35,000 300 Climbing Atlanta Center
04:01PM 33.6675 -86.7944 275° West 439 505 35,000  Level Atlanta Center
04:02PM 33.6786 -86.9419 284° West 439 505 35,000  Level Atlanta Center
04:03PM 33.7086 -87.0853 284° West 439 505 35,000 300 Level Atlanta Center
04:05PM 33.7697 -87.3836 286° West 472 543 36,000 300 Climbing Memphis Center
04:06PM 33.8000 -87.5125 283° West 457 526 36,000  Level Memphis Center
04:07PM 33.8283 -87.6617 285° West 450 518 36,000  Level Memphis Center
04:08PM 33.8606 -87.8056 284° West 450 518 36,000  Level Memphis Center
04:09PM 33.8906 -87.9500 283° West 450 518 36,000  Level Memphis Center
04:10PM 33.9206 -88.1017 283° West 455 524 36,000  Level Memphis Center
04:11PM 33.9525 -88.2636 283° West 462 532 36,000  Level Memphis Center
04:12PM 33.9800 -88.4108 284° West 462 532 36,000  Level Memphis Center
04:13PM 34.0114 -88.5581 283° West 456 525 36,000  Level Memphis Center
04:14PM 34.0406 -88.7053 283° West 456 525 36,000  Level Memphis Center
04:15PM 34.0675 -88.8478 283° West 451 519 36,000  Level Memphis Center
04:16PM 34.0964 -88.9950 283° West 446 513 36,000  Level Memphis Center
04:17PM 34.1250 -89.1453 284° West 456 525 36,000  Level Memphis Center
04:18PM 34.1556 -89.2978 283° West 461 531 36,000  Level Memphis Center
04:19PM 34.1839 -89.4458 283° West 466 536 36,000  Level Memphis Center
04:20PM 34.2100 -89.5836 283° West 466 536 36,000  Level Memphis Center
04:21PM 34.2378 -89.7317 283° West 466 536 36,000  Level Memphis Center
04:22PM 34.2656 -89.8797 283° West 466 536 36,000  Level Memphis Center
04:23PM 34.2953 -90.0303 282° West 461 531 36,000  Level Memphis Center
04:24PM 34.3228 -90.1911 284° West 461 531 36,000  Level Memphis Center
04:25PM 34.3522 -90.3394 283° West 454 522 36,000  Level Memphis Center
04:26PM 34.3792 -90.4831 282° West 448 516 36,000  Level Memphis Center
04:27PM 34.4042 -90.6289 282° West 448 516 36,000  Level Memphis Center
04:28PM 34.4286 -90.7725 284° West 448 516 36,000  Level Memphis Center
04:29PM 34.4575 -90.9139 282° West 443 510 36,000  Level Memphis Center
04:30PM 34.4817 -91.0575 280° West 443 510 36,000  Level Memphis Center
04:31PM 34.4997 -91.1864 276° West 438 504 36,000  Level Memphis Center
04:32PM 34.5111 -91.3300 278° West 433 498 36,000  Level Memphis Center
04:33PM 34.5267 -91.4714 276° West 428 493 36,000  Level Memphis Center
04:34PM 34.5400 -91.6153 276° West 428 493 36,000  Level Memphis Center
04:35PM 34.5511 -91.7517 275° West 423 487 36,000  Level Memphis Center
04:36PM 34.5619 -91.8956 277° West 423 487 36,000  Level Memphis Center
04:37PM 34.5767 -92.0344 275° West 423 487 36,000  Level Memphis Center
04:38PM 34.5872 -92.1736 276° West 423 487 36,000  Level Memphis Center
04:39PM 34.5997 -92.3150 276° West 423 487 36,000  Level Memphis Center
04:40PM 34.6122 -92.4517 277° West 423 487 36,000  Level Memphis Center
04:41PM 34.6264 -92.5933 275° West 423 487 36,000  Level Memphis Center
04:42PM 34.6364 -92.7325 275° West 423 487 36,000  Level Memphis Center
04:43PM 34.6461 -92.8714 276° West 423 487 36,000  Level Memphis Center
04:44PM 34.6597 -93.0208 276° West 423 487 36,000  Level Memphis Center
04:45PM 34.6714 -93.1600 275° West 418 481 36,000 300 Level Memphis Center
04:46PM 34.6808 -93.2942 275° West 418 481 36,700 780 Climbing Memphis Center
04:47PM 34.6919 -93.4386 275° West 424 488 37,600 600 Climbing Memphis Center
04:48PM 34.7028 -93.5831 276° West 424 488 38,000 180 Climbing Memphis Center
04:49PM 34.7158 -93.7250 275° West 429 494 38,000  Level Memphis Center
04:50PM 34.7264 -93.8669 274° West 424 488 38,000  Level Memphis Center
04:51PM 34.7350 -94.0086 274° West 424 488 38,000  Level Memphis Center
04:52PM 34.7433 -94.1506 276° West 424 488 38,000  Level Memphis Center
04:53PM 34.7553 -94.2953 274° West 424 488 38,000  Level Memphis Center
04:54PM 34.7636 -94.4269 275° West 429 494 38,000  Level Memphis Center
04:55PM 34.7736 -94.5717 275° West 429 494 38,000  Level Memphis Center
04:56PM 34.7833 -94.7136 273° West 429 494 38,000  Level Memphis Center
04:57PM 34.7906 -94.8608 275° West 424 488 38,000  Level Memphis Center
04:58PM 34.8014 -95.0181 275° West 429 494 38,000  Level Memphis Center
05:00PM 34.8156 -95.2131 274° West 422 486 38,000  Level Fort Worth Center
05:01PM 34.8242 -95.3622 274° West 428 493 38,000  Level Fort Worth Center
05:02PM 34.8328 -95.5061 274° West 433 498 38,000  Level Fort Worth Center
05:03PM 34.8414 -95.6603 272° West 433 498 38,000  Level Fort Worth Center
05:04PM 34.8453 -95.8069 268° West 433 498 38,000  Level Fort Worth Center
05:05PM 34.8425 -95.9233 269° West 433 498 38,000  Level Fort Worth Center
05:06PM 34.8403 -96.0778 268° West 433 498 38,000  Level Fort Worth Center
05:07PM 34.8353 -96.2219 268° West 433 498 38,000  Level Fort Worth Center
05:08PM 34.8303 -96.3689 269° West 433 498 38,000  Level Fort Worth Center
05:09PM 34.8272 -96.5131 269° West 433 498 38,000  Level Fort Worth Center
05:10PM 34.8242 -96.6597 269° West 433 498 38,000  Level Fort Worth Center
05:11PM 34.8208 -96.8217 267° West 440 506 38,000  Level Fort Worth Center
05:12PM 34.8153 -96.9683 267° West 440 506 38,000  Level Fort Worth Center
05:13PM 34.8094 -97.1100 268° West 440 506 38,000  Level Fort Worth Center
05:14PM 34.8056 -97.2542 268° West 440 506 38,000  Level Fort Worth Center
05:15PM 34.8014 -97.3958 268° West 435 501 38,000  Level Fort Worth Center
05:16PM 34.7972 -97.5222 267° West 429 494 38,000  Level Fort Worth Center
05:17PM 34.7906 -97.6589 268° West 416 479 38,000  Level Fort Worth Center
05:18PM 34.7861 -97.7953 269° West 416 479 38,000  Level Fort Worth Center
05:19PM 34.7836 -97.9317 266° West 406 467 38,000  Level Fort Worth Center
05:20PM 34.7767 -98.0633 267° West 406 467 38,000  Level Fort Worth Center
05:21PM 34.7694 -98.2122 269° West 406 467 38,000  Level Fort Worth Center
05:22PM 34.7667 -98.3464 267° West 406 467 38,000  Level Fort Worth Center
05:23PM 34.7614 -98.4750 267° West 401 461 38,000  Level Fort Worth Center
05:24PM 34.7561 -98.5914 267° West 385 443 38,000  Level Fort Worth Center
05:25PM 34.7506 -98.7200 267° West 385 443 38,000  Level Fort Worth Center
05:26PM 34.7450 -98.8514 266° West 385 443 38,000  Level Fort Worth Center
05:27PM 34.7372 -98.9828 268° West 385 443 38,000  Level Fort Worth Center
05:28PM 34.7333 -99.1114 266° West 385 443 38,000  Level Fort Worth Center
05:29PM 34.7253 -99.2428 267° West 385 443 38,000  Level Fort Worth Center
05:30PM 34.7192 -99.3739 267° West 385 443 38,000  Level Fort Worth Center
05:31PM 34.7128 -99.5078 266° West 396 456 38,000  Level Fort Worth Center
05:32PM 34.7042 -99.6439 267° West 396 456 38,000  Level Fort Worth Center
05:33PM 34.6975 -99.7800 268° West 407 468 38,000  Level Fort Worth Center
05:34PM 34.6928 -99.9139 265° West 402 463 38,000  Level Fort Worth Center
05:35PM 34.6839 -100.0447 266° West 402 463 38,000  Level Fort Worth Center
05:37PM 34.6678 -100.3358 266° West 393 452 38,000  Level Albuquerque Center
05:38PM 34.6600 -100.4664 266° West 391 450 38,000  Level Albuquerque Center
05:39PM 34.6511 -100.6256 265° West 392 451 38,000  Level Albuquerque Center
05:40PM 34.6422 -100.7597 265° West 396 456 38,000  Level Albuquerque Center
05:41PM 34.6331 -100.8950 265° West 399 459 38,000  Level Albuquerque Center
05:42PM 34.6236 -101.0372 266° West 412 474 38,000  Level Fort Worth Center
05:43PM 34.6153 -101.1731 266° West 412 474 38,000  Level Fort Worth Center
05:44PM 34.6072 -101.3089 265° West 412 474 38,000  Level Fort Worth Center
05:45PM 34.5964 -101.4472 266° West 412 474 38,000  Level Fort Worth Center
05:46PM 34.5878 -101.5831 265° West 407 468 38,000  Level Fort Worth Center
05:47PM 34.5769 -101.7211 265° West 407 468 38,000  Level Fort Worth Center
05:48PM 34.5681 -101.8569 264° West 407 468 38,000  Level Fort Worth Center
05:49PM 34.5567 -101.9975 265° West 407 468 38,000  Level Fort Worth Center
05:52PM 34.5342 -102.3247 265° West 405 466 38,000  Level Albuquerque Center
05:53PM 34.5242 -102.4583 264° West 400 460 38,000  Level Albuquerque Center
05:54PM 34.5133 -102.5928 265° West 399 459 38,000  Level Albuquerque Center
05:55PM 34.5033 -102.7278 265° West 398 458 38,000 300 Level Albuquerque Center
05:56PM 34.4931 -102.8633 269° West 399 459 38,700 720 Climbing Albuquerque Center
05:57PM 34.4917 -103.0225 267° West 400 460 39,600 600 Climbing Albuquerque Center
05:58PM 34.4858 -103.1617 268° West 405 466 40,000 180 Climbing Albuquerque Center
05:59PM 34.4825 -103.3036 269° West 413 475 40,000  Level Albuquerque Center
06:00PM 34.4808 -103.4431 268° West 412 474 40,000  Level Albuquerque Center
06:01PM 34.4758 -103.5822 268° West 410 472 40,000  Level Albuquerque Center
06:02PM 34.4717 -103.7214 268° West 409 471 40,000  Level Albuquerque Center
06:03PM 34.4669 -103.8611 268° West 409 471 40,000  Level Albuquerque Center
06:04PM 34.4628 -104.0003 268° West 410 472 40,000  Level Albuquerque Center
06:05PM 34.4581 -104.1403 268° West 410 472 40,000  Level Albuquerque Center
06:06PM 34.4531 -104.3025 268° West 410 472 40,000  Level Albuquerque Center
06:07PM 34.4481 -104.4436 267° West 412 474 40,000  Level Albuquerque Center
06:08PM 34.4428 -104.5836 268° West 411 473 40,000  Level Albuquerque Center
06:09PM 34.4378 -104.7250 267° West 414 476 40,000  Level Albuquerque Center
06:10PM 34.4322 -104.8661 267° West 415 478 40,000  Level Albuquerque Center
06:11PM 34.4267 -105.0072 267° West 414 476 40,000  Level Albuquerque Center
06:12PM 34.4197 -105.1475 267° West 414 476 40,000  Level Albuquerque Center
06:13PM 34.4136 -105.2889 267° West 415 478 40,000  Level Albuquerque Center
06:14PM 34.4078 -105.4294 267° West 415 478 40,000  Level Albuquerque Center
06:15PM 34.4017 -105.5747 267° West 422 486 40,000  Level Albuquerque Center
06:16PM 34.3942 -105.7431 267° West 425 489 40,000  Level Albuquerque Center
06:17PM 34.3869 -105.8886 267° West 427 491 40,000  Level Albuquerque Center
06:18PM 34.3800 -106.0342 266° West 430 495 40,000  Level Albuquerque Center
06:19PM 34.3722 -106.1814 266° West 432 497 40,000  Level Albuquerque Center
06:20PM 34.3647 -106.3169 267° West 434 499 40,000  Level Albuquerque Center
06:21PM 34.3575 -106.4647 267° West 437 503 40,000  Level Albuquerque Center
06:22PM 34.3503 -106.6072 266° West 428 493 40,000  Level Albuquerque Center
06:23PM 34.3397 -106.7789 272° West 426 490 40,000  Level Albuquerque Center
06:25PM 34.3433 -106.9250 273° West 432 497 40,000  Level Albuquerque Center
06:26PM 34.3494 -107.0689 272° West 431 496 40,000  Level Albuquerque Center
06:27PM 34.3544 -107.2108 273° West 423 487 40,000  Level Albuquerque Center
06:28PM 34.3611 -107.3539 273° West 423 487 40,000  Level Albuquerque Center
06:29PM 34.3672 -107.4969 273° West 425 489 40,000  Level Albuquerque Center
06:30PM 34.3733 -107.6383 272° West 422 486 40,000  Level Albuquerque Center
06:31PM 34.3783 -107.7811 273° West 422 486 40,000  Level Albuquerque Center
06:32PM 34.3850 -107.9511 273° West 422 486 40,000  Level Albuquerque Center
06:33PM 34.3906 -108.0925 272° West 421 484 40,000  Level Albuquerque Center
06:34PM 34.3956 -108.2339 272° West 420 483 40,000  Level Albuquerque Center
06:35PM 34.4003 -108.3742 273° West 418 481 40,000  Level Albuquerque Center
06:36PM 34.4061 -108.5219 272° West 418 481 40,000  Level Albuquerque Center
06:37PM 34.4111 -108.6783 272° West 417 480 40,000  Level Albuquerque Center
06:38PM 34.4153 -108.8153 272° West 419 482 40,000  Level Albuquerque Center
06:39PM 34.4186 -108.9531 272° West 423 487 40,000  Level Albuquerque Center
06:40PM 34.4242 -109.1150 269° West 426 490 40,000  Level Albuquerque Center
06:41PM 34.4211 -109.2536 267° West 431 496 40,000  Level Albuquerque Center
06:42PM 34.4147 -109.4153 268° West 432 497 40,000  Level Albuquerque Center
06:43PM 34.4097 -109.5544 268° West 430 495 40,000  Level Albuquerque Center
06:44PM 34.4047 -109.6931 267° West 431 496 40,000  Level Albuquerque Center
06:45PM 34.3978 -109.8544 268° West 430 495 40,000  Level Albuquerque Center
06:46PM 34.3931 -109.9919 269° West 428 493 40,000  Level Albuquerque Center
06:47PM 34.3900 -110.1519 268° West 426 490 40,000  Level Albuquerque Center
06:48PM 34.3864 -110.2914 268° West 429 494 40,000  Level Albuquerque Center
06:49PM 34.3825 -110.4494 269° West 428 493 40,000  Level Albuquerque Center
06:50PM 34.3794 -110.5933 268° West 425 489 40,000  Level Albuquerque Center
06:51PM 34.3753 -110.7358 266° West 421 484 40,000  Level Albuquerque Center
06:52PM 34.3675 -110.8744 268° West 414 476 40,000  Level Albuquerque Center
06:53PM 34.3633 -111.0142 267° West 411 473 40,000 -60 Level Albuquerque Center
06:54PM 34.3578 -111.1547 268° West 413 475 39,900  Descending Albuquerque Center
06:55PM 34.3533 -111.2961 267° West 415 478 40,000  Climbing Albuquerque Center
06:56PM 34.3481 -111.4375 267° West 417 480 40,000  Level Albuquerque Center
06:57PM 34.3425 -111.5769 268° West 415 478 40,000  Level Albuquerque Center
06:58PM 34.3381 -111.7169 267° West 414 476 40,000  Level Albuquerque Center
06:59PM 34.3319 -111.8561 267° West 413 475 40,000  Level Albuquerque Center
07:01PM 34.3261 -111.9942 267° West 411 473 40,000  Level Albuquerque Center
07:02PM 34.3208 -112.1317 267° West 409 471 40,000  Level Albuquerque Center
07:03PM 34.3131 -112.2950 267° West 405 466 40,000  Level Albuquerque Center
07:04PM 34.3075 -112.4311 267° West 402 463 40,000  Level Albuquerque Center
07:05PM 34.3019 -112.5669 267° West 401 461 40,000  Level Albuquerque Center
07:06PM 34.2956 -112.7036 266° West 402 463 40,000  Level Albuquerque Center
07:07PM 34.2883 -112.8392 267° West 400 460 40,000  Level Albuquerque Center
07:08PM 34.2817 -112.9758 267° West 400 460 40,000  Level Albuquerque Center
07:09PM 34.2758 -113.1136 266° West 403 464 40,000  Level Albuquerque Center
07:10PM 34.2681 -113.2508 267° West 405 466 40,000  Level Albuquerque Center
07:11PM 34.2614 -113.3886 267° West 405 466 40,000  Level Albuquerque Center
07:12PM 34.2544 -113.5256 265° West 403 464 40,000  Level Albuquerque Center
07:13PM 34.2433 -113.6775 264° West 402 463 40,000  Level Albuquerque Center
07:14PM 34.2308 -113.8128 263° West 403 464 40,000  Level Albuquerque Center
07:15PM 34.2172 -113.9469 263° West 402 463 40,000  Level Albuquerque Center
07:16PM 34.2039 -114.0819 264° West 404 465 40,000  Level Albuquerque Center
07:17PM 34.1919 -114.2178 264° West 409 471 40,000  Level Los Angeles Center
07:18PM 34.1792 -114.3536 262° West 409 471 40,000  Level Los Angeles Center
07:19PM 34.1644 -114.4844 262° West 409 471 40,000  Level Los Angeles Center
07:20PM 34.1494 -114.6153 263° West 409 471 40,000 -60 Level Los Angeles Center
07:21PM 34.1364 -114.7483 262° West 409 471 39,900  Descending Los Angeles Center
07:22PM 34.1211 -114.8817 262° West 409 471 40,000  Climbing Los Angeles Center
07:23PM 34.1056 -115.0150 263° West 409 471 40,000 -60 Level Los Angeles Center
07:24PM 34.0922 -115.1481 262° West 409 471 39,900  Descending Los Angeles Center
07:25PM 34.0764 -115.2811 262° West 409 471 40,000  Climbing Los Angeles Center
07:26PM 34.0606 -115.4142 263° West 409 471 40,000 -300 Level Los Angeles Center
07:27PM 34.0467 -115.5497 263° West 409 471 39,400 -1,380 Descending Los Angeles Center
07:28PM 34.0328 -115.6800 261° West 409 471 37,300 -2,580 Descending Los Angeles Center
07:29PM 34.0164 -115.8106 262° West 409 471 34,300 -3,180 Descending Los Angeles Center
07:30PM 34.0019 -115.9408 261° West 409 471 31,000 -3,060 Descending Los Angeles Center
07:31PM 33.9853 -116.0736 262° West 409 471 28,200 -2,640 Descending Los Angeles Center
07:32PM 33.9708 -116.2014 262° West 409 471 25,800 -2,400 Descending Los Angeles Center
07:33PM 33.9561 -116.3267 262° West 397 457 23,500 -2,280 Descending Los Angeles Center
07:34PM 33.9411 -116.4492 263° West 385 443 21,300 -2,640 Descending Los Angeles Center
07:35PM 33.9283 -116.5744 260° West 385 443 18,300 -2,400 Descending Los Angeles Center
07:36PM 33.9111 -116.6969 263° West 385 443 16,500 -1,920 Descending Los Angeles Center
07:37PM 33.9000 -116.8119 259° West 374 430 14,500 -1,500 Descending Los Angeles Center
07:38PM 33.8833 -116.9167 259° West 337 388 13,500 -900 Descending Southern California TRACON
07:39PM 33.8667 -117.0167 258° West 292 336 12,700 -1,140 Descending Southern California TRACON
07:40PM 33.8500 -117.1142 264° West 311 358 11,300 -1,440 Descending Los Angeles Center
07:41PM 33.8431 -117.1967 258° West 283 326 9,900 -1,440 Descending Los Angeles Center
07:42PM 33.8275 -117.2864 259° West 277 319 8,500 -1,020 Descending Los Angeles Center
07:43PM 33.8142 -117.3714 261° West 272 313 7,900 -300 Descending Los Angeles Center
07:44PM 33.8050 -117.4436 259° West 251 289 8,000  Climbing Los Angeles Center
07:45PM 33.7917 -117.5233 259° West 234 269 8,000 -720 Level Los Angeles Center
07:46PM 33.7803 -117.5933 275° West 227 261 6,600 -1,140 Descending Los Angeles Center
07:47PM 33.7858 -117.6658 267° West 222 255 5,800 -1,140 Descending Los Angeles Center
07:48PM 33.7833 -117.7333 270° West 203 234 4,400 -1,380 Descending Southern California TRACON
07:49PM 33.7833 -117.8000 220° Southwest 196 226 3,100 -1,200 Descending Southern California TRACON
07:50PM 33.7500 -117.8333 195° South 149 171 2,100 -1,320 Descending Southern California TRACON
07:51PM 33.7000 -117.8500 195° South 149 171 500 -1,620 Descending Southern California TRACON